sensor_id;sensor_type;location;lat;lon;timestamp;P1;durP1;ratioP1;P2;durP2;ratioP2
37701;SDS011;23548;51.196;6.838;2023-01-09T00:00:14;2.28;;;1.00;;
37701;SDS011;23548;51.196;6.838;2023-01-09T00:02:41;2.40;;;0.88;;
37701;SDS011;23548;51.196;6.838;2023-01-09T00:05:11;1.30;;;0.80;;
37701;SDS011;23548;51.196;6.838;2023-01-09T00:07:39;2.92;;;0.70;;
37701;SDS011;23548;51.196;6.838;2023-01-09T00:10:05;1.33;;;0.60;;
37701;SDS011;23548;51.196;6.838;2023-01-09T00:12:31;1.10;;;0.50;;
37701;SDS011;23548;51.196;6.838;2023-01-09T00:14:57;0.93;;;0.63;;
37701;SDS011;23548;51.196;6.838;2023-01-09T00:17:23;3.30;;;0.93;;
37701;SDS011;23548;51.196;6.838;2023-01-09T00:19:49;1.35;;;0.70;;
37701;SDS011;23548;51.196;6.838;2023-01-09T00:22:15;2.05;;;0.70;;
37701;SDS011;23548;51.196;6.838;2023-01-09T00:24:40;2.35;;;0.60;;
37701;SDS011;23548;51.196;6.838;2023-01-09T00:27:06;1.33;;;0.77;;
37701;SDS011;23548;51.196;6.838;2023-01-09T00:29:32;0.93;;;0.52;;
37701;SDS011;23548;51.196;6.838;2023-01-09T00:31:58;1.08;;;0.38;;
37701;SDS011;23548;51.196;6.838;2023-01-09T00:34:23;0.85;;;0.30;;
37701;SDS011;23548;51.196;6.838;2023-01-09T00:36:50;0.77;;;0.30;;
37701;SDS011;23548;51.196;6.838;2023-01-09T00:39:19;0.65;;;0.40;;
37701;SDS011;23548;51.196;6.838;2023-01-09T00:41:47;2.85;;;1.42;;
37701;SDS011;23548;51.196;6.838;2023-01-09T00:44:22;0.30;;;0.30;;
37701;SDS011;23548;51.196;6.838;2023-01-09T00:46:54;0.85;;;0.30;;
37701;SDS011;23548;51.196;6.838;2023-01-09T00:49:23;0.22;;;0.22;;
37701;SDS011;23548;51.196;6.838;2023-01-09T00:51:49;0.25;;;0.20;;
37701;SDS011;23548;51.196;6.838;2023-01-09T00:54:16;0.50;;;0.30;;
37701;SDS011;23548;51.196;6.838;2023-01-09T00:56:43;0.47;;;0.20;;
37701;SDS011;23548;51.196;6.838;2023-01-09T00:59:10;0.43;;;0.25;;
37701;SDS011;23548;51.196;6.838;2023-01-09T01:01:35;0.88;;;0.30;;
37701;SDS011;23548;51.196;6.838;2023-01-09T01:04:01;2.15;;;0.30;;
37701;SDS011;23548;51.196;6.838;2023-01-09T01:06:47;0.32;;;0.32;;
37701;SDS011;23548;51.196;6.838;2023-01-09T01:09:31;0.40;;;0.30;;
37701;SDS011;23548;51.196;6.838;2023-01-09T01:11:56;0.43;;;0.35;;
37701;SDS011;23548;51.196;6.838;2023-01-09T01:14:22;0.93;;;0.32;;
37701;SDS011;23548;51.196;6.838;2023-01-09T01:16:48;0.63;;;0.30;;
37701;SDS011;23548;51.196;6.838;2023-01-09T01:19:13;0.70;;;0.40;;
37701;SDS011;23548;51.196;6.838;2023-01-09T01:21:39;0.30;;;0.30;;
37701;SDS011;23548;51.196;6.838;2023-01-09T01:24:05;0.30;;;0.20;;
37701;SDS011;23548;51.196;6.838;2023-01-09T01:26:31;0.30;;;0.28;;
37701;SDS011;23548;51.196;6.838;2023-01-09T01:28:57;0.30;;;0.30;;
37701;SDS011;23548;51.196;6.838;2023-01-09T01:31:23;0.35;;;0.20;;
37701;SDS011;23548;51.196;6.838;2023-01-09T01:33:49;0.57;;;0.20;;
37701;SDS011;23548;51.196;6.838;2023-01-09T01:36:15;0.65;;;0.40;;
37701;SDS011;23548;51.196;6.838;2023-01-09T01:38:42;1.65;;;0.30;;
37701;SDS011;23548;51.196;6.838;2023-01-09T01:41:08;0.35;;;0.30;;
37701;SDS011;23548;51.196;6.838;2023-01-09T01:46:52;0.65;;;0.47;;
37701;SDS011;23548;51.196;6.838;2023-01-09T01:49:20;0.30;;;0.30;;
37701;SDS011;23548;51.196;6.838;2023-01-09T01:51:47;0.50;;;0.50;;
37701;SDS011;23548;51.196;6.838;2023-01-09T01:54:19;1.05;;;0.70;;
37701;SDS011;23548;51.196;6.838;2023-01-09T01:56:48;0.98;;;0.75;;
37701;SDS011;23548;51.196;6.838;2023-01-09T02:01:51;1.45;;;0.60;;
37701;SDS011;23548;51.196;6.838;2023-01-09T02:04:19;0.88;;;0.50;;
37701;SDS011;23548;51.196;6.838;2023-01-09T02:06:46;1.23;;;0.50;;
37701;SDS011;23548;51.196;6.838;2023-01-09T02:09:13;1.35;;;0.55;;
37701;SDS011;23548;51.196;6.838;2023-01-09T02:11:45;1.70;;;0.57;;
37701;SDS011;23548;51.196;6.838;2023-01-09T02:14:13;1.70;;;0.60;;
37701;SDS011;23548;51.196;6.838;2023-01-09T02:27:48;1.58;;;0.90;;
37701;SDS011;23548;51.196;6.838;2023-01-09T02:40:48;2.28;;;1.00;;
37701;SDS011;23548;51.196;6.838;2023-01-09T02:43:24;1.65;;;1.00;;
37701;SDS011;23548;51.196;6.838;2023-01-09T02:45:51;1.85;;;1.05;;
37701;SDS011;23548;51.196;6.838;2023-01-09T02:48:16;3.05;;;1.20;;
37701;SDS011;23548;51.196;6.838;2023-01-09T02:53:31;4.28;;;1.73;;
37701;SDS011;23548;51.196;6.838;2023-01-09T02:56:44;2.83;;;1.80;;
37701;SDS011;23548;51.196;6.838;2023-01-09T02:59:44;5.15;;;1.55;;
37701;SDS011;23548;51.196;6.838;2023-01-09T03:02:45;4.28;;;1.90;;
37701;SDS011;23548;51.196;6.838;2023-01-09T03:05:23;2.45;;;1.40;;
37701;SDS011;23548;51.196;6.838;2023-01-09T03:08:03;4.22;;;1.70;;
37701;SDS011;23548;51.196;6.838;2023-01-09T03:10:34;2.90;;;1.63;;
37701;SDS011;23548;51.196;6.838;2023-01-09T03:13:10;3.55;;;1.42;;
37701;SDS011;23548;51.196;6.838;2023-01-09T03:15:40;2.08;;;1.42;;
37701;SDS011;23548;51.196;6.838;2023-01-09T03:18:09;2.25;;;1.60;;
37701;SDS011;23548;51.196;6.838;2023-01-09T03:20:38;5.00;;;1.35;;
37701;SDS011;23548;51.196;6.838;2023-01-09T03:23:05;4.72;;;1.63;;
37701;SDS011;23548;51.196;6.838;2023-01-09T03:25:32;5.88;;;1.80;;
37701;SDS011;23548;51.196;6.838;2023-01-09T03:28:08;3.03;;;1.67;;
37701;SDS011;23548;51.196;6.838;2023-01-09T03:30:55;2.92;;;1.52;;
37701;SDS011;23548;51.196;6.838;2023-01-09T03:33:21;4.03;;;1.70;;
37701;SDS011;23548;51.196;6.838;2023-01-09T03:35:47;4.90;;;2.08;;
37701;SDS011;23548;51.196;6.838;2023-01-09T03:38:13;2.97;;;1.70;;
37701;SDS011;23548;51.196;6.838;2023-01-09T03:40:39;4.75;;;1.92;;
37701;SDS011;23548;51.196;6.838;2023-01-09T03:43:07;5.32;;;2.10;;
37701;SDS011;23548;51.196;6.838;2023-01-09T03:45:33;5.78;;;1.73;;
37701;SDS011;23548;51.196;6.838;2023-01-09T03:47:59;4.78;;;1.80;;
37701;SDS011;23548;51.196;6.838;2023-01-09T03:50:25;10.13;;;2.17;;
37701;SDS011;23548;51.196;6.838;2023-01-09T03:52:50;5.93;;;1.90;;
37701;SDS011;23548;51.196;6.838;2023-01-09T03:55:16;7.63;;;2.00;;
37701;SDS011;23548;51.196;6.838;2023-01-09T03:57:42;4.82;;;2.08;;
37701;SDS011;23548;51.196;6.838;2023-01-09T04:00:08;6.03;;;1.83;;
37701;SDS011;23548;51.196;6.838;2023-01-09T04:02:35;4.88;;;2.10;;
37701;SDS011;23548;51.196;6.838;2023-01-09T04:05:00;4.25;;;2.13;;
37701;SDS011;23548;51.196;6.838;2023-01-09T04:07:26;9.70;;;2.22;;
37701;SDS011;23548;51.196;6.838;2023-01-09T04:09:52;9.80;;;2.80;;
37701;SDS011;23548;51.196;6.838;2023-01-09T04:12:17;6.18;;;2.80;;
37701;SDS011;23548;51.196;6.838;2023-01-09T04:14:43;5.72;;;2.45;;
37701;SDS011;23548;51.196;6.838;2023-01-09T04:17:09;4.88;;;2.28;;
37701;SDS011;23548;51.196;6.838;2023-01-09T04:19:35;6.57;;;2.38;;
37701;SDS011;23548;51.196;6.838;2023-01-09T04:22:00;4.78;;;2.08;;
37701;SDS011;23548;51.196;6.838;2023-01-09T04:24:26;3.72;;;2.13;;
37701;SDS011;23548;51.196;6.838;2023-01-09T04:26:52;8.02;;;1.95;;
37701;SDS011;23548;51.196;6.838;2023-01-09T04:29:19;2.97;;;1.83;;
37701;SDS011;23548;51.196;6.838;2023-01-09T04:31:44;5.22;;;2.20;;
37701;SDS011;23548;51.196;6.838;2023-01-09T04:34:10;10.10;;;2.25;;
37701;SDS011;23548;51.196;6.838;2023-01-09T04:36:36;6.47;;;1.90;;
37701;SDS011;23548;51.196;6.838;2023-01-09T04:39:02;5.60;;;1.90;;
37701;SDS011;23548;51.196;6.838;2023-01-09T04:41:28;7.60;;;2.45;;
37701;SDS011;23548;51.196;6.838;2023-01-09T04:44:12;7.38;;;2.50;;
37701;SDS011;23548;51.196;6.838;2023-01-09T04:46:39;7.13;;;1.92;;
37701;SDS011;23548;51.196;6.838;2023-01-09T04:49:05;8.00;;;2.08;;
37701;SDS011;23548;51.196;6.838;2023-01-09T04:51:30;6.15;;;2.85;;
37701;SDS011;23548;51.196;6.838;2023-01-09T04:53:56;10.95;;;2.08;;
37701;SDS011;23548;51.196;6.838;2023-01-09T04:56:22;5.35;;;1.70;;
37701;SDS011;23548;51.196;6.838;2023-01-09T04:58:48;6.35;;;1.70;;
37701;SDS011;23548;51.196;6.838;2023-01-09T05:01:13;5.00;;;1.55;;
37701;SDS011;23548;51.196;6.838;2023-01-09T05:03:39;3.35;;;1.70;;
37701;SDS011;23548;51.196;6.838;2023-01-09T05:06:05;4.90;;;1.70;;
37701;SDS011;23548;51.196;6.838;2023-01-09T05:08:31;6.93;;;1.70;;
37701;SDS011;23548;51.196;6.838;2023-01-09T05:10:56;5.07;;;1.80;;
37701;SDS011;23548;51.196;6.838;2023-01-09T05:13:22;7.32;;;1.83;;
37701;SDS011;23548;51.196;6.838;2023-01-09T05:15:48;6.85;;;1.80;;
37701;SDS011;23548;51.196;6.838;2023-01-09T05:18:14;6.72;;;1.40;;
37701;SDS011;23548;51.196;6.838;2023-01-09T05:20:39;9.18;;;2.50;;
37701;SDS011;23548;51.196;6.838;2023-01-09T05:23:05;5.18;;;2.00;;
37701;SDS011;23548;51.196;6.838;2023-01-09T05:25:31;8.43;;;1.40;;
37701;SDS011;23548;51.196;6.838;2023-01-09T05:27:56;6.05;;;1.88;;
37701;SDS011;23548;51.196;6.838;2023-01-09T05:30:23;9.55;;;1.75;;
37701;SDS011;23548;51.196;6.838;2023-01-09T05:32:49;8.85;;;1.23;;
37701;SDS011;23548;51.196;6.838;2023-01-09T05:35:15;9.07;;;1.35;;
37701;SDS011;23548;51.196;6.838;2023-01-09T05:37:41;6.78;;;1.50;;
37701;SDS011;23548;51.196;6.838;2023-01-09T05:40:06;12.80;;;2.00;;
37701;SDS011;23548;51.196;6.838;2023-01-09T05:42:33;10.73;;;1.65;;
37701;SDS011;23548;51.196;6.838;2023-01-09T05:44:58;9.32;;;2.08;;
37701;SDS011;23548;51.196;6.838;2023-01-09T05:47:24;4.40;;;1.40;;
37701;SDS011;23548;51.196;6.838;2023-01-09T05:49:50;6.63;;;1.40;;
37701;SDS011;23548;51.196;6.838;2023-01-09T05:52:15;11.60;;;1.98;;
37701;SDS011;23548;51.196;6.838;2023-01-09T05:54:41;5.85;;;1.20;;
37701;SDS011;23548;51.196;6.838;2023-01-09T05:57:07;6.53;;;1.33;;
37701;SDS011;23548;51.196;6.838;2023-01-09T05:59:32;8.23;;;1.30;;
37701;SDS011;23548;51.196;6.838;2023-01-09T06:01:58;4.30;;;1.38;;
37701;SDS011;23548;51.196;6.838;2023-01-09T06:04:24;8.82;;;1.35;;
37701;SDS011;23548;51.196;6.838;2023-01-09T06:06:53;7.75;;;1.70;;
37701;SDS011;23548;51.196;6.838;2023-01-09T06:09:20;8.50;;;1.52;;
37701;SDS011;23548;51.196;6.838;2023-01-09T06:11:46;8.77;;;1.85;;
37701;SDS011;23548;51.196;6.838;2023-01-09T06:14:11;8.02;;;2.00;;
37701;SDS011;23548;51.196;6.838;2023-01-09T06:16:37;9.18;;;1.85;;
37701;SDS011;23548;51.196;6.838;2023-01-09T06:19:03;5.93;;;1.40;;
37701;SDS011;23548;51.196;6.838;2023-01-09T06:21:30;8.00;;;1.50;;
37701;SDS011;23548;51.196;6.838;2023-01-09T06:23:56;5.80;;;1.30;;
37701;SDS011;23548;51.196;6.838;2023-01-09T06:26:22;7.63;;;1.35;;
37701;SDS011;23548;51.196;6.838;2023-01-09T06:28:51;6.32;;;1.65;;
37701;SDS011;23548;51.196;6.838;2023-01-09T06:31:20;8.93;;;1.30;;
37701;SDS011;23548;51.196;6.838;2023-01-09T06:33:46;4.53;;;1.45;;
37701;SDS011;23548;51.196;6.838;2023-01-09T06:36:12;7.05;;;1.45;;
37701;SDS011;23548;51.196;6.838;2023-01-09T06:38:38;3.13;;;1.00;;
37701;SDS011;23548;51.196;6.838;2023-01-09T06:41:04;6.97;;;1.80;;
37701;SDS011;23548;51.196;6.838;2023-01-09T06:43:30;4.78;;;1.25;;
37701;SDS011;23548;51.196;6.838;2023-01-09T06:45:56;6.40;;;1.30;;
37701;SDS011;23548;51.196;6.838;2023-01-09T06:48:21;5.95;;;1.20;;
37701;SDS011;23548;51.196;6.838;2023-01-09T06:50:49;4.43;;;1.20;;
37701;SDS011;23548;51.196;6.838;2023-01-09T06:53:18;7.95;;;1.75;;
37701;SDS011;23548;51.196;6.838;2023-01-09T06:55:44;16.73;;;3.47;;
37701;SDS011;23548;51.196;6.838;2023-01-09T06:58:10;4.38;;;1.45;;
37701;SDS011;23548;51.196;6.838;2023-01-09T07:00:36;7.35;;;1.63;;
37701;SDS011;23548;51.196;6.838;2023-01-09T07:03:03;7.72;;;1.77;;
37701;SDS011;23548;51.196;6.838;2023-01-09T07:05:29;6.72;;;1.25;;
37701;SDS011;23548;51.196;6.838;2023-01-09T07:08:04;9.15;;;7.15;;
37701;SDS011;23548;51.196;6.838;2023-01-09T07:10:29;9.88;;;1.60;;
37701;SDS011;23548;51.196;6.838;2023-01-09T07:12:55;4.40;;;1.30;;
37701;SDS011;23548;51.196;6.838;2023-01-09T07:15:21;7.90;;;1.40;;
37701;SDS011;23548;51.196;6.838;2023-01-09T07:17:47;6.20;;;1.63;;
37701;SDS011;23548;51.196;6.838;2023-01-09T07:20:15;3.72;;;1.48;;
37701;SDS011;23548;51.196;6.838;2023-01-09T07:22:42;4.45;;;1.60;;
37701;SDS011;23548;51.196;6.838;2023-01-09T07:25:08;5.45;;;1.20;;
37701;SDS011;23548;51.196;6.838;2023-01-09T07:27:34;5.70;;;1.45;;
37701;SDS011;23548;51.196;6.838;2023-01-09T07:30:00;7.57;;;1.35;;
37701;SDS011;23548;51.196;6.838;2023-01-09T07:32:26;6.35;;;1.35;;
37701;SDS011;23548;51.196;6.838;2023-01-09T07:34:52;6.25;;;1.20;;
37701;SDS011;23548;51.196;6.838;2023-01-09T07:37:18;14.18;;;7.78;;
37701;SDS011;23548;51.196;6.838;2023-01-09T07:39:43;8.75;;;2.28;;
37701;SDS011;23548;51.196;6.838;2023-01-09T07:42:10;6.93;;;1.52;;
37701;SDS011;23548;51.196;6.838;2023-01-09T07:44:35;5.70;;;1.40;;
37701;SDS011;23548;51.196;6.838;2023-01-09T07:47:01;6.40;;;1.58;;
37701;SDS011;23548;51.196;6.838;2023-01-09T07:49:27;6.30;;;1.75;;
37701;SDS011;23548;51.196;6.838;2023-01-09T07:51:53;5.88;;;1.73;;
37701;SDS011;23548;51.196;6.838;2023-01-09T07:54:19;7.97;;;1.85;;
37701;SDS011;23548;51.196;6.838;2023-01-09T07:56:48;12.88;;;2.08;;
37701;SDS011;23548;51.196;6.838;2023-01-09T07:59:14;7.85;;;1.85;;
37701;SDS011;23548;51.196;6.838;2023-01-09T08:01:40;4.50;;;1.50;;
37701;SDS011;23548;51.196;6.838;2023-01-09T08:04:05;7.47;;;1.20;;
37701;SDS011;23548;51.196;6.838;2023-01-09T08:06:31;4.55;;;1.60;;
37701;SDS011;23548;51.196;6.838;2023-01-09T08:08:57;5.00;;;1.95;;
37701;SDS011;23548;51.196;6.838;2023-01-09T08:11:23;6.50;;;1.48;;
37701;SDS011;23548;51.196;6.838;2023-01-09T08:13:49;8.20;;;2.00;;
37701;SDS011;23548;51.196;6.838;2023-01-09T08:16:15;7.50;;;1.70;;
37701;SDS011;23548;51.196;6.838;2023-01-09T08:18:41;5.47;;;1.60;;
37701;SDS011;23548;51.196;6.838;2023-01-09T08:21:07;5.43;;;1.63;;
37701;SDS011;23548;51.196;6.838;2023-01-09T08:23:33;6.43;;;1.38;;
37701;SDS011;23548;51.196;6.838;2023-01-09T08:25:59;6.50;;;1.85;;
37701;SDS011;23548;51.196;6.838;2023-01-09T08:28:24;11.40;;;2.50;;
37701;SDS011;23548;51.196;6.838;2023-01-09T08:30:50;7.13;;;2.40;;
37701;SDS011;23548;51.196;6.838;2023-01-09T08:33:16;9.88;;;2.20;;
37701;SDS011;23548;51.196;6.838;2023-01-09T08:35:42;8.38;;;2.13;;
37701;SDS011;23548;51.196;6.838;2023-01-09T08:38:08;8.50;;;2.10;;
37701;SDS011;23548;51.196;6.838;2023-01-09T08:40:34;8.52;;;1.88;;
37701;SDS011;23548;51.196;6.838;2023-01-09T08:43:00;5.75;;;1.70;;
37701;SDS011;23548;51.196;6.838;2023-01-09T08:45:44;14.40;;;2.35;;
37701;SDS011;23548;51.196;6.838;2023-01-09T08:48:29;10.15;;;2.30;;
37701;SDS011;23548;51.196;6.838;2023-01-09T08:50:55;15.60;;;2.55;;
37701;SDS011;23548;51.196;6.838;2023-01-09T08:53:20;9.82;;;2.13;;
37701;SDS011;23548;51.196;6.838;2023-01-09T08:55:46;9.30;;;2.70;;
37701;SDS011;23548;51.196;6.838;2023-01-09T08:58:12;32.22;;;5.05;;
37701;SDS011;23548;51.196;6.838;2023-01-09T09:00:38;14.60;;;2.35;;
37701;SDS011;23548;51.196;6.838;2023-01-09T09:03:03;20.17;;;3.97;;
37701;SDS011;23548;51.196;6.838;2023-01-09T09:05:30;7.60;;;1.30;;
37701;SDS011;23548;51.196;6.838;2023-01-09T09:07:57;7.13;;;1.52;;
37701;SDS011;23548;51.196;6.838;2023-01-09T09:10:27;6.47;;;2.20;;
37701;SDS011;23548;51.196;6.838;2023-01-09T09:12:54;9.43;;;1.30;;
37701;SDS011;23548;51.196;6.838;2023-01-09T09:15:21;3.83;;;1.20;;
37701;SDS011;23548;51.196;6.838;2023-01-09T09:20:22;8.27;;;1.77;;
37701;SDS011;23548;51.196;6.838;2023-01-09T09:22:50;10.52;;;2.00;;
37701;SDS011;23548;51.196;6.838;2023-01-09T09:25:18;6.32;;;1.92;;
37701;SDS011;23548;51.196;6.838;2023-01-09T09:27:44;10.18;;;1.80;;
37701;SDS011;23548;51.196;6.838;2023-01-09T09:30:11;5.07;;;1.67;;
37701;SDS011;23548;51.196;6.838;2023-01-09T09:32:37;7.85;;;1.50;;
37701;SDS011;23548;51.196;6.838;2023-01-09T09:35:04;9.13;;;1.60;;
37701;SDS011;23548;51.196;6.838;2023-01-09T09:37:30;7.72;;;2.08;;
37701;SDS011;23548;51.196;6.838;2023-01-09T09:39:56;9.45;;;2.03;;
37701;SDS011;23548;51.196;6.838;2023-01-09T09:53:32;4.93;;;1.50;;
37701;SDS011;23548;51.196;6.838;2023-01-09T09:56:20;5.53;;;1.75;;
37701;SDS011;23548;51.196;6.838;2023-01-09T09:58:52;4.53;;;1.40;;
37701;SDS011;23548;51.196;6.838;2023-01-09T10:01:28;5.13;;;1.52;;
37701;SDS011;23548;51.196;6.838;2023-01-09T10:04:13;7.82;;;1.50;;
37701;SDS011;23548;51.196;6.838;2023-01-09T10:06:45;5.38;;;1.50;;
37701;SDS011;23548;51.196;6.838;2023-01-09T10:21:03;7.85;;;1.60;;
37701;SDS011;23548;51.196;6.838;2023-01-09T10:26:27;4.72;;;1.20;;
37701;SDS011;23548;51.196;6.838;2023-01-09T10:29:11;3.08;;;1.08;;
37701;SDS011;23548;51.196;6.838;2023-01-09T10:32:01;9.18;;;1.63;;
37701;SDS011;23548;51.196;6.838;2023-01-09T10:40:01;6.50;;;1.23;;
37701;SDS011;23548;51.196;6.838;2023-01-09T10:42:35;8.73;;;1.63;;
37701;SDS011;23548;51.196;6.838;2023-01-09T10:45:14;5.10;;;1.30;;
37701;SDS011;23548;51.196;6.838;2023-01-09T10:47:45;4.75;;;1.20;;
37701;SDS011;23548;51.196;6.838;2023-01-09T10:50:25;3.55;;;1.17;;
37701;SDS011;23548;51.196;6.838;2023-01-09T10:52:56;6.32;;;1.60;;
37701;SDS011;23548;51.196;6.838;2023-01-09T10:55:33;3.03;;;1.30;;
37701;SDS011;23548;51.196;6.838;2023-01-09T10:58:20;4.70;;;1.25;;
37701;SDS011;23548;51.196;6.838;2023-01-09T11:00:47;7.43;;;1.00;;
37701;SDS011;23548;51.196;6.838;2023-01-09T11:03:19;5.32;;;1.40;;
37701;SDS011;23548;51.196;6.838;2023-01-09T11:05:53;9.38;;;1.58;;
37701;SDS011;23548;51.196;6.838;2023-01-09T11:10:56;6.35;;;1.25;;
37701;SDS011;23548;51.196;6.838;2023-01-09T11:13:25;6.82;;;1.40;;
37701;SDS011;23548;51.196;6.838;2023-01-09T11:18:37;4.20;;;1.50;;
37701;SDS011;23548;51.196;6.838;2023-01-09T11:26:41;5.80;;;1.55;;
37701;SDS011;23548;51.196;6.838;2023-01-09T11:29:10;4.25;;;1.40;;
37701;SDS011;23548;51.196;6.838;2023-01-09T11:31:41;4.10;;;1.60;;
37701;SDS011;23548;51.196;6.838;2023-01-09T11:34:19;6.72;;;1.42;;
37701;SDS011;23548;51.196;6.838;2023-01-09T11:36:47;6.15;;;1.48;;
37701;SDS011;23548;51.196;6.838;2023-01-09T11:39:26;4.72;;;0.82;;
37701;SDS011;23548;51.196;6.838;2023-01-09T11:41:55;6.10;;;0.90;;
37701;SDS011;23548;51.196;6.838;2023-01-09T11:44:23;4.05;;;1.23;;
37701;SDS011;23548;51.196;6.838;2023-01-09T11:46:51;4.18;;;1.10;;
37701;SDS011;23548;51.196;6.838;2023-01-09T11:49:21;5.53;;;1.60;;
37701;SDS011;23548;51.196;6.838;2023-01-09T11:54:58;3.28;;;0.90;;
37701;SDS011;23548;51.196;6.838;2023-01-09T11:57:28;6.43;;;0.98;;
37701;SDS011;23548;51.196;6.838;2023-01-09T11:59:56;3.53;;;0.90;;
37701;SDS011;23548;51.196;6.838;2023-01-09T12:08:13;3.42;;;1.17;;
37701;SDS011;23548;51.196;6.838;2023-01-09T12:21:46;3.03;;;1.27;;
37701;SDS011;23548;51.196;6.838;2023-01-09T12:24:44;4.50;;;1.20;;
37701;SDS011;23548;51.196;6.838;2023-01-09T12:28:03;2.67;;;1.02;;
37701;SDS011;23548;51.196;6.838;2023-01-09T12:30:32;2.17;;;0.90;;
37701;SDS011;23548;51.196;6.838;2023-01-09T12:36:08;2.88;;;0.93;;
37701;SDS011;23548;51.196;6.838;2023-01-09T12:38:54;3.40;;;1.00;;
37701;SDS011;23548;51.196;6.838;2023-01-09T12:44:11;2.40;;;1.10;;
37701;SDS011;23548;51.196;6.838;2023-01-09T12:49:29;2.45;;;1.30;;
37701;SDS011;23548;51.196;6.838;2023-01-09T12:52:11;4.78;;;1.55;;
37701;SDS011;23548;51.196;6.838;2023-01-09T12:57:10;2.45;;;1.38;;
37701;SDS011;23548;51.196;6.838;2023-01-09T12:59:38;3.72;;;1.45;;
37701;SDS011;23548;51.196;6.838;2023-01-09T13:05:21;5.68;;;1.80;;
37701;SDS011;23548;51.196;6.838;2023-01-09T13:07:55;4.78;;;1.77;;
37701;SDS011;23548;51.196;6.838;2023-01-09T13:10:29;6.10;;;1.90;;
37701;SDS011;23548;51.196;6.838;2023-01-09T13:13:01;5.28;;;2.10;;
37701;SDS011;23548;51.196;6.838;2023-01-09T13:15:36;3.83;;;1.90;;
37701;SDS011;23548;51.196;6.838;2023-01-09T13:21:10;3.90;;;1.70;;
37701;SDS011;23548;51.196;6.838;2023-01-09T13:26:16;6.32;;;1.80;;
37701;SDS011;23548;51.196;6.838;2023-01-09T13:29:01;3.25;;;1.70;;
37701;SDS011;23548;51.196;6.838;2023-01-09T13:34:14;2.80;;;1.25;;
37701;SDS011;23548;51.196;6.838;2023-01-09T13:36:48;6.22;;;1.70;;
37701;SDS011;23548;51.196;6.838;2023-01-09T13:39:26;5.22;;;2.05;;
37701;SDS011;23548;51.196;6.838;2023-01-09T13:41:58;5.05;;;1.80;;
37701;SDS011;23548;51.196;6.838;2023-01-09T13:44:44;4.18;;;2.10;;
37701;SDS011;23548;51.196;6.838;2023-01-09T13:47:16;6.35;;;1.95;;
37701;SDS011;23548;51.196;6.838;2023-01-09T13:49:59;4.38;;;1.48;;
37701;SDS011;23548;51.196;6.838;2023-01-09T13:52:36;5.32;;;1.85;;
37701;SDS011;23548;51.196;6.838;2023-01-09T13:55:19;4.03;;;1.70;;
37701;SDS011;23548;51.196;6.838;2023-01-09T14:03:15;4.95;;;1.65;;
37701;SDS011;23548;51.196;6.838;2023-01-09T14:08:14;4.15;;;1.77;;
37701;SDS011;23548;51.196;6.838;2023-01-09T14:11:01;6.93;;;1.92;;
37701;SDS011;23548;51.196;6.838;2023-01-09T14:16:05;5.57;;;2.47;;
37701;SDS011;23548;51.196;6.838;2023-01-09T14:18:38;7.47;;;2.28;;
37701;SDS011;23548;51.196;6.838;2023-01-09T14:21:14;4.78;;;2.00;;
37701;SDS011;23548;51.196;6.838;2023-01-09T14:32:41;5.57;;;1.90;;
37701;SDS011;23548;51.196;6.838;2023-01-09T14:34:57;6.18;;;2.00;;
37701;SDS011;23548;51.196;6.838;2023-01-09T14:37:29;6.75;;;2.78;;
37701;SDS011;23548;51.196;6.838;2023-01-09T14:39:58;8.25;;;1.73;;
37701;SDS011;23548;51.196;6.838;2023-01-09T14:42:25;7.78;;;2.28;;
37701;SDS011;23548;51.196;6.838;2023-01-09T14:44:58;6.80;;;2.20;;
37701;SDS011;23548;51.196;6.838;2023-01-09T14:50:32;3.85;;;1.90;;
37701;SDS011;23548;51.196;6.838;2023-01-09T14:53:05;7.93;;;2.10;;
37701;SDS011;23548;51.196;6.838;2023-01-09T14:58:30;6.90;;;2.50;;
37701;SDS011;23548;51.196;6.838;2023-01-09T15:00:59;10.10;;;3.83;;
37701;SDS011;23548;51.196;6.838;2023-01-09T15:03:44;14.38;;;4.97;;
37701;SDS011;23548;51.196;6.838;2023-01-09T15:06:20;7.85;;;2.72;;
37701;SDS011;23548;51.196;6.838;2023-01-09T15:08:57;6.18;;;2.10;;
37701;SDS011;23548;51.196;6.838;2023-01-09T15:11:25;6.15;;;2.70;;
37701;SDS011;23548;51.196;6.838;2023-01-09T15:13:52;7.35;;;3.13;;
37701;SDS011;23548;51.196;6.838;2023-01-09T15:16:21;8.35;;;2.65;;
37701;SDS011;23548;51.196;6.838;2023-01-09T15:18:50;3.85;;;2.17;;
37701;SDS011;23548;51.196;6.838;2023-01-09T15:21:25;3.67;;;1.90;;
37701;SDS011;23548;51.196;6.838;2023-01-09T15:23:58;4.85;;;2.25;;
37701;SDS011;23548;51.196;6.838;2023-01-09T15:26:50;5.35;;;2.20;;
37701;SDS011;23548;51.196;6.838;2023-01-09T15:29:21;7.35;;;2.60;;
37701;SDS011;23548;51.196;6.838;2023-01-09T15:31:48;7.20;;;2.33;;
37701;SDS011;23548;51.196;6.838;2023-01-09T15:34:19;7.40;;;2.50;;
37701;SDS011;23548;51.196;6.838;2023-01-09T15:36:46;4.50;;;2.55;;
37701;SDS011;23548;51.196;6.838;2023-01-09T15:39:35;7.05;;;2.85;;
37701;SDS011;23548;51.196;6.838;2023-01-09T15:42:00;5.75;;;2.30;;
37701;SDS011;23548;51.196;6.838;2023-01-09T15:44:46;5.38;;;2.17;;
37701;SDS011;23548;51.196;6.838;2023-01-09T15:47:19;5.53;;;2.30;;
37701;SDS011;23548;51.196;6.838;2023-01-09T15:49:53;9.65;;;2.75;;
37701;SDS011;23548;51.196;6.838;2023-01-09T15:52:20;9.38;;;3.05;;
37701;SDS011;23548;51.196;6.838;2023-01-09T15:54:47;6.00;;;3.13;;
37701;SDS011;23548;51.196;6.838;2023-01-09T15:59:54;8.23;;;2.85;;
37701;SDS011;23548;51.196;6.838;2023-01-09T16:02:21;10.25;;;2.97;;
37701;SDS011;23548;51.196;6.838;2023-01-09T16:05:08;6.90;;;2.95;;
37701;SDS011;23548;51.196;6.838;2023-01-09T16:07:44;11.55;;;6.45;;
37701;SDS011;23548;51.196;6.838;2023-01-09T16:10:21;6.97;;;3.20;;
37701;SDS011;23548;51.196;6.838;2023-01-09T16:12:52;8.05;;;3.17;;
37701;SDS011;23548;51.196;6.838;2023-01-09T16:15:18;10.30;;;3.75;;
37701;SDS011;23548;51.196;6.838;2023-01-09T16:18:04;10.50;;;3.63;;
37701;SDS011;23548;51.196;6.838;2023-01-09T16:20:31;7.43;;;2.90;;
37701;SDS011;23548;51.196;6.838;2023-01-09T16:22:57;10.73;;;3.20;;
37701;SDS011;23548;51.196;6.838;2023-01-09T16:25:26;9.68;;;3.00;;
37701;SDS011;23548;51.196;6.838;2023-01-09T16:30:59;11.30;;;3.35;;
37701;SDS011;23548;51.196;6.838;2023-01-09T16:33:33;11.68;;;3.85;;
37701;SDS011;23548;51.196;6.838;2023-01-09T16:35:59;13.75;;;4.15;;
37701;SDS011;23548;51.196;6.838;2023-01-09T16:38:28;13.27;;;4.35;;
37701;SDS011;23548;51.196;6.838;2023-01-09T16:43:41;7.60;;;4.18;;
37701;SDS011;23548;51.196;6.838;2023-01-09T16:46:06;6.85;;;4.25;;
37701;SDS011;23548;51.196;6.838;2023-01-09T16:48:32;9.10;;;4.43;;
37701;SDS011;23548;51.196;6.838;2023-01-09T16:50:58;10.00;;;4.13;;
37701;SDS011;23548;51.196;6.838;2023-01-09T16:53:24;16.00;;;4.95;;
37701;SDS011;23548;51.196;6.838;2023-01-09T16:55:51;11.23;;;4.43;;
37701;SDS011;23548;51.196;6.838;2023-01-09T16:58:27;13.45;;;4.63;;
37701;SDS011;23548;51.196;6.838;2023-01-09T17:00:55;6.50;;;3.92;;
37701;SDS011;23548;51.196;6.838;2023-01-09T17:03:22;11.02;;;4.60;;
37701;SDS011;23548;51.196;6.838;2023-01-09T17:05:52;11.82;;;4.50;;
37701;SDS011;23548;51.196;6.838;2023-01-09T17:08:28;12.20;;;5.30;;
37701;SDS011;23548;51.196;6.838;2023-01-09T17:10:56;9.95;;;4.72;;
37701;SDS011;23548;51.196;6.838;2023-01-09T17:13:23;13.43;;;5.28;;
37701;SDS011;23548;51.196;6.838;2023-01-09T17:15:50;7.43;;;3.95;;
37701;SDS011;23548;51.196;6.838;2023-01-09T17:18:18;9.13;;;4.70;;
37701;SDS011;23548;51.196;6.838;2023-01-09T17:20:49;15.68;;;4.70;;
37701;SDS011;23548;51.196;6.838;2023-01-09T17:23:17;9.75;;;3.80;;
37701;SDS011;23548;51.196;6.838;2023-01-09T17:25:44;11.65;;;4.45;;
37701;SDS011;23548;51.196;6.838;2023-01-09T17:28:32;14.45;;;4.70;;
37701;SDS011;23548;51.196;6.838;2023-01-09T17:31:03;11.68;;;4.03;;